Mingo, IA

7:18 AM CST on February 28, 2015 (GMT -0600)
Tranquility Base | Change Station
CLOSE
Current Station
Personal Weather Station
Location: Maxwell, IA
Elevation: 902 ft
Nearby Weather Stations
Active Advisory: Wind Chill Advisory Active Notice: Record Report

Elev 902 ft 41.89 °N, 93.40 °W | Updated 7 minutes ago

Clear
Clear
-9.2 °F
Feels Like -9 °F
N
1.1
Wind Variable Wind from North

Today
High -- | Low -- °F
--% Chance of Precip.
Yesterday
High -- | Low -- °F
Precip. -- in
6:49 AM 6:02 PM
Waxing Gibbous, 77% visible
Pressure 30.58 in
Visibility 10.0 miles
Clouds Mostly Cloudy 10000 ft
Windchill -9 °F
Dew Point -12 °F
Humidity 88%
Rainfall 0.00 in
Snow Depth Not available.
UV 0 out of 12
Pollen .50 out of 12
Air Quality Not available.
Flu Activity Not available.
METAR KIKV 281255Z AUTO 00000KT 10SM BKN100 M22/M25 A3058 RMK AO2

More Conditions Fewer Conditions

Pressure 30.58 in
Visibility 10.0 miles
Clouds Mostly Cloudy 10000 ft
Windchill -9 °F
Dew Point -12 °F
Humidity 88%
Rainfall 0.00 in
Snow Depth Not available.
UV 0 out of 12
Pollen .50 out of 12
Air Quality Not available.
Flu Activity Not available.
METAR KIKV 281255Z AUTO 00000KT 10SM BKN100 M22/M25 A3058 RMK AO2

More Conditions Fewer Conditions

10-Day Weather Forecast

Almanac

Astronomy

Feb. 28, 2015 Rise Set
Actual Time
Civil Twilight
Nautical Twilight
Astronomical Twilight
Moon
Length of Visible Light
Length of Day
Tomorrow will be .
, % of the Moon is Illuminated

Today's Extremes

State Highs State Lows

Community

WunderPhotos

Upload Photos

1,801,004 photos uploaded!

WunderBlogs® & News

Nearby

Air Quality

  Air Quality AQ Index Pollutant
Not available.

Snow Depth

Station Depth Elevation

Earthquake Activity

City Distance Mag. Time & Date
Minimum magnitude displayed is 2.5.

Coastal Water Temperatures

Place Temperature

Nearby Weather Stations

Wind Chill Advisory
Statement as of 3:56 AM CST on February 28, 2015

... Wind Chill Advisory remains in effect until 9 am CST this
morning...

* winds... southeast 5 to 10 mph

* temperatures/wind chill values... temperatures 10 to 20 below...
with wind chills 20 to 30 below zero.

* Impacts... frost bite can develop within 30 minutes if skin is
exposed and hypothermia may occur if precautions are not
taken.

Precautionary/preparedness actions...

A Wind Chill Advisory means that very cold air and strong winds
will combine to generate low wind chills. This will result in
frost bite and lead to hypothermia if precautions are not taken.
If you must venture outdoors... make sure you wear a hat and
gloves.